Time;durP1;ratioP1;P1;durP2;ratioP2;P2;SDS_P1;SDS_P2;PMS_P1;PMS_P2;Temp;Humidity;BMP_temperature;BMP_pressure;BME280_temperature;BME280_humidity;BME280_pressure;Samples;Min_cycle;Max_cycle;Signal;HPM_P1;HPM_P2
2022/01/22 00:02:05;;;;;;;26.60;7.95;;;26.30;63.50;;;;;;5012104;28;20041;-77
2022/01/22 00:04:32;;;;;;;23.33;8.27;;;26.30;63.30;;;;;;5002153;28;20030;-77
2022/01/22 00:07:02;;;;;;;32.80;7.38;;;26.20;63.20;;;;;;4999027;28;20018;-75
2022/01/22 00:09:36;;;;;;;22.20;6.57;;;26.20;63.00;;;;;;5002882;28;20117;-76
2022/01/22 00:12:06;;;;;;;24.35;7.53;;;26.20;62.90;;;;;;4998352;28;20563;-78
2022/01/22 00:14:34;;;;;;;19.10;6.03;;;26.20;62.50;;;;;;5005786;28;20508;-77
2022/01/22 00:17:02;;;;;;;18.10;5.95;;;26.20;62.10;;;;;;5000376;28;20022;-76
2022/01/22 00:19:30;;;;;;;15.35;5.00;;;26.20;61.80;;;;;;5030793;28;20036;-76
2022/01/22 00:21:58;;;;;;;23.85;6.82;;;26.20;61.60;;;;;;4999900;28;20080;-77
2022/01/22 00:24:26;;;;;;;17.17;5.60;;;26.20;61.50;;;;;;5000754;28;20068;-74
2022/01/22 00:26:53;;;;;;;15.30;4.85;;;26.20;61.30;;;;;;5000824;28;20018;-76
2022/01/22 00:29:19;;;;;;;18.50;6.70;;;26.10;61.20;;;;;;5002019;28;20022;-74
2022/01/22 00:31:46;;;;;;;13.82;4.75;;;26.10;61.00;;;;;;4995704;28;20037;-76
2022/01/22 00:34:13;;;;;;;15.10;5.78;;;26.10;61.00;;;;;;4997070;28;20034;-80
2022/01/22 00:36:39;;;;;;;23.98;6.95;;;26.10;60.90;;;;;;5012302;28;20072;-76
2022/01/22 00:39:06;;;;;;;16.90;5.53;;;26.10;60.90;;;;;;5000162;28;20109;-77
2022/01/22 00:41:33;;;;;;;15.35;4.93;;;26.10;60.90;;;;;;4997512;28;20508;-77
2022/01/22 00:44:05;;;;;;;18.90;5.43;;;26.10;61.00;;;;;;5001979;28;20026;-77
2022/01/22 00:46:31;;;;;;;14.68;5.05;;;26.10;61.10;;;;;;4999262;28;20098;-77
2022/01/22 00:48:58;;;;;;;19.23;5.40;;;26.00;61.10;;;;;;5027569;28;20011;-78
2022/01/22 00:51:25;;;;;;;14.73;5.45;;;26.10;61.30;;;;;;5001723;28;20065;-76
2022/01/22 00:53:51;;;;;;;11.15;4.88;;;26.00;61.40;;;;;;4993952;28;20082;-79
2022/01/22 00:56:18;;;;;;;20.55;5.88;;;26.00;61.60;;;;;;4995428;28;20057;-80
2022/01/22 00:58:45;;;;;;;15.70;5.90;;;26.00;61.70;;;;;;4995463;28;20106;-77
2022/01/22 01:01:11;;;;;;;13.88;6.18;;;26.00;61.80;;;;;;5000874;28;20037;-77
2022/01/22 01:03:39;;;;;;;14.73;5.85;;;26.00;62.00;;;;;;4994372;28;20046;-78
2022/01/22 01:06:06;;;;;;;18.65;5.47;;;26.00;62.10;;;;;;4997800;28;20023;-76
2022/01/22 01:08:34;;;;;;;15.85;6.45;;;26.00;62.90;;;;;;4999754;28;20065;-78
2022/01/22 01:11:03;;;;;;;16.02;6.00;;;25.90;62.40;;;;;;4997951;28;20045;-78
2022/01/22 01:13:34;;;;;;;16.70;5.93;;;26.00;62.50;;;;;;4999864;28;20029;-77
2022/01/22 01:16:14;;;;;;;17.80;6.32;;;25.90;63.20;;;;;;4993681;28;20029;-76
2022/01/22 01:32:33;;;;;;;16.30;6.07;;;25.80;63.30;;;;;;4995252;28;20277;-78
2022/01/22 01:35:05;;;;;;;18.00;6.40;;;25.80;63.50;;;;;;4996495;28;20042;-75
2022/01/22 01:37:31;;;;;;;14.25;5.07;;;25.80;63.60;;;;;;4998143;28;20378;-78
2022/01/22 01:40:04;;;;;;;14.32;5.80;;;25.80;63.80;;;;;;5002063;28;20181;-77
2022/01/22 01:43:35;;;;;;;15.57;5.18;;;25.80;63.80;;;;;;5009885;28;20121;-74
2022/01/22 01:45:27;;;;;;;13.05;6.15;;;25.80;64.00;;;;;;4992761;28;20057;-77
2022/01/22 01:48:13;;;;;;;15.02;5.55;;;25.80;64.10;;;;;;5011246;28;20097;-76
2022/01/22 01:50:41;;;;;;;14.48;5.72;;;25.70;64.20;;;;;;4996262;28;20053;-76
2022/01/22 01:53:29;;;;;;;16.15;5.50;;;25.80;64.40;;;;;;4997457;28;20032;-75
2022/01/22 01:58:29;;;;;;;15.13;5.03;;;25.80;64.60;;;;;;4998280;28;20021;-77
2022/01/22 02:01:00;;;;;;;13.05;5.95;;;25.70;64.50;;;;;;4985044;28;20610;-75
2022/01/22 02:03:27;;;;;;;14.82;5.88;;;25.70;64.60;;;;;;4997711;28;20041;-77
2022/01/22 02:05:53;;;;;;;22.95;6.88;;;25.80;64.80;;;;;;4999924;28;20018;-77
2022/01/22 02:08:20;;;;;;;17.38;5.88;;;25.70;64.90;;;;;;4999517;28;20022;-78
2022/01/22 02:10:56;;;;;;;14.10;5.20;;;25.70;64.90;;;;;;4997439;28;20168;-77
2022/01/22 02:24:53;;;;;;;22.02;8.00;;;25.70;65.40;;;;;;4996661;28;20397;-75
2022/01/22 02:27:21;;;;;;;23.02;7.65;;;25.70;65.50;;;;;;5001844;28;20061;-76
2022/01/22 02:29:49;;;;;;;17.85;8.55;;;25.60;65.50;;;;;;4996929;28;20037;-78
2022/01/22 02:35:09;;;;;;;24.00;8.88;;;25.60;65.70;;;;;;5000913;28;20512;-75
2022/01/22 02:37:40;;;;;;;19.75;7.82;;;25.60;65.80;;;;;;4996647;28;20026;-77
2022/01/22 02:40:14;;;;;;;26.02;9.82;;;25.70;65.90;;;;;;5010178;28;20471;-75
2022/01/22 02:42:42;;;;;;;16.58;6.88;;;25.60;65.80;;;;;;4993017;28;20034;-77
2022/01/22 02:45:11;;;;;;;18.98;5.70;;;25.70;65.90;;;;;;5006259;28;20108;-75
2022/01/22 02:47:38;;;;;;;18.40;6.65;;;25.60;66.00;;;;;;5001817;28;20080;-75
2022/01/22 02:50:06;;;;;;;21.65;7.05;;;25.60;65.90;;;;;;5000805;28;20580;-77
2022/01/22 02:52:32;;;;;;;20.30;5.55;;;25.60;65.90;;;;;;5029691;28;20026;-76
2022/01/22 02:55:00;;;;;;;24.90;8.20;;;25.60;65.90;;;;;;4999357;28;20022;-77
2022/01/22 02:57:31;;;;;;;20.83;6.00;;;25.60;66.00;;;;;;5002606;28;20025;-80
2022/01/22 03:00:00;;;;;;;24.63;5.45;;;25.60;65.90;;;;;;5015755;28;20504;-76
2022/01/22 03:02:27;;;;;;;20.83;5.13;;;25.60;65.90;;;;;;5000328;28;20058;-78
2022/01/22 03:04:54;;;;;;;14.07;5.07;;;25.60;65.90;;;;;;5001749;28;20030;-77
2022/01/22 03:07:20;;;;;;;12.77;4.03;;;25.60;65.90;;;;;;5000179;28;20385;-76
2022/01/22 03:09:49;;;;;;;18.08;4.20;;;25.60;65.80;;;;;;5002394;28;20022;-75
2022/01/22 03:12:46;;;;;;;13.93;5.57;;;25.60;65.70;;;;;;5001099;28;20543;-78
2022/01/22 03:18:03;;;;;;;28.15;5.38;;;25.60;66.30;;;;;;4998793;28;20078;-74
2022/01/22 03:29:05;;;;;;;10.52;3.55;;;25.50;65.30;;;;;;4998419;28;19964;-73
2022/01/22 03:31:32;;;;;;;8.75;4.70;;;25.50;65.10;;;;;;4998590;28;20038;-74
2022/01/22 03:33:59;;;;;;;14.25;4.53;;;25.50;65.00;;;;;;4994258;28;20022;-78
2022/01/22 03:36:29;;;;;;;10.73;4.43;;;25.50;64.90;;;;;;5000625;28;20382;-77
2022/01/22 03:38:56;;;;;;;56.60;10.38;;;25.50;64.90;;;;;;4999373;28;20022;-78
2022/01/22 03:41:25;;;;;;;59.72;14.63;;;25.50;65.00;;;;;;5032430;28;20034;-76
2022/01/22 03:43:53;;;;;;;36.05;18.80;;;25.50;65.30;;;;;;5002628;28;20029;-75
2022/01/22 03:46:20;;;;;;;33.30;13.43;;;25.60;66.00;;;;;;4997807;28;20106;-78
2022/01/22 03:48:47;;;;;;;32.00;10.93;;;25.50;66.00;;;;;;4994927;28;20142;-77
2022/01/22 03:51:14;;;;;;;14.68;6.47;;;25.50;65.80;;;;;;4992251;28;20037;-76
2022/01/22 03:53:41;;;;;;;17.50;6.35;;;25.50;66.30;;;;;;5005200;28;20093;-78
2022/01/22 03:56:09;;;;;;;20.45;5.80;;;25.50;65.50;;;;;;4996645;28;20053;-79
2022/01/22 03:58:45;;;;;;;34.67;5.55;;;25.50;65.40;;;;;;5001491;28;20464;-78
2022/01/22 04:03:44;;;;;;;49.55;7.22;;;25.50;65.70;;;;;;5000794;28;20057;-78
2022/01/22 04:08:58;;;;;;;37.03;7.47;;;25.50;65.80;;;;;;4999976;28;20057;-80
2022/01/22 04:11:25;;;;;;;93.03;13.88;;;25.50;66.00;;;;;;4990571;28;20520;-78
2022/01/22 04:13:58;;;;;;;49.13;10.55;;;25.50;66.00;;;;;;5000095;28;20080;-76
2022/01/22 04:16:28;;;;;;;44.03;9.23;;;25.50;66.20;;;;;;5001493;28;20029;-81
2022/01/22 04:27:13;;;;;;;27.73;6.32;;;25.40;66.10;;;;;;4986979;28;20556;-76
2022/01/22 04:29:41;;;;;;;36.00;6.22;;;25.40;66.50;;;;;;5002835;28;20102;-77
2022/01/22 04:32:09;;;;;;;31.27;7.05;;;25.40;66.60;;;;;;5003166;28;20061;-75
2022/01/22 04:34:36;;;;;;;22.45;6.20;;;25.40;66.70;;;;;;4999151;28;20457;-77
2022/01/22 04:37:04;;;;;;;22.80;5.07;;;25.40;66.70;;;;;;4986155;28;20023;-79
2022/01/22 04:39:30;;;;;;;15.60;5.82;;;25.40;66.70;;;;;;4986687;28;20125;-79
2022/01/22 04:41:57;;;;;;;20.35;5.80;;;25.40;66.70;;;;;;4986567;28;20549;-79
2022/01/22 04:44:28;;;;;;;16.45;5.90;;;25.40;66.60;;;;;;4986849;28;20019;-74
2022/01/22 04:47:15;;;;;;;30.30;10.15;;;25.40;66.60;;;;;;4989980;28;20014;-78
2022/01/22 04:52:41;;;;;;;28.13;17.00;;;25.50;66.70;;;;;;4986701;28;20053;-77
2022/01/22 04:55:08;;;;;;;22.48;11.70;;;25.40;66.60;;;;;;4987798;28;20061;-77
2022/01/22 04:58:14;;;;;;;12.27;7.78;;;25.50;66.60;;;;;;4988509;28;20425;-80
2022/01/22 05:01:01;;;;;;;;;;;25.50;66.70;;;;;;4982094;28;20038;-81
2022/01/22 05:03:50;;;;;;;17.70;6.10;;;25.50;66.60;;;;;;4984196;28;20364;-77
2022/01/22 05:06:56;;;;;;;15.48;6.13;;;25.50;66.60;;;;;;4986311;28;20374;-78
2022/01/22 05:09:42;;;;;;;;;;;25.50;66.70;;;;;;4984968;28;20026;-77
2022/01/22 05:12:53;;;;;;;36.10;6.35;;;25.50;66.80;;;;;;4979858;28;19965;-80
2022/01/22 05:16:04;;;;;;;25.48;5.35;;;25.50;67.00;;;;;;4980483;28;20041;-78
2022/01/22 05:19:44;;;;;;;125.50;12.93;;;25.50;67.60;;;;;;4981871;28;20035;-77
2022/01/22 05:23:15;;;;;;;54.45;19.90;;;25.50;68.20;;;;;;4978978;28;20038;-78
2022/01/22 05:39:29;;;;;;;36.00;8.40;;;25.60;67.60;;;;;;4981715;28;20064;-77
2022/01/22 05:42:20;;;;;;;;;;;25.60;67.80;;;;;;4983608;28;20030;-78
2022/01/22 05:44:47;;;;;;;50.63;17.83;;;25.60;67.90;;;;;;4980792;28;19924;-73
2022/01/22 05:47:27;;;;;;;59.13;19.23;;;25.60;67.80;;;;;;4986588;28;20084;-78
2022/01/22 05:49:55;;;;;;;65.50;16.70;;;25.60;67.60;;;;;;4986507;28;20061;-77
2022/01/22 05:52:33;;;;;;;36.00;13.55;;;25.60;67.60;;;;;;4987132;28;20035;-72
2022/01/22 05:55:25;;;;;;;30.38;11.00;;;25.70;68.40;;;;;;5000174;28;20053;-72
2022/01/22 06:00:40;;;;;;;34.25;8.90;;;25.80;68.10;;;;;;4993927;28;20105;-75
2022/01/22 06:03:08;;;;;;;48.28;9.60;;;25.80;68.20;;;;;;5000760;28;20413;-74
2022/01/22 06:05:36;;;;;;;36.40;9.93;;;25.80;68.60;;;;;;5000660;28;20022;-77
2022/01/22 06:08:03;;;;;;;39.95;9.65;;;25.80;68.30;;;;;;4993439;28;20022;-74
2022/01/22 06:10:32;;;;;;;38.50;9.15;;;25.90;68.20;;;;;;4996922;28;20037;-75
2022/01/22 06:13:18;;;;;;;33.85;8.57;;;25.90;67.90;;;;;;4999044;28;20061;-77
2022/01/22 06:15:45;;;;;;;33.42;10.32;;;25.90;67.70;;;;;;4996089;28;20088;-76
2022/01/22 06:18:11;;;;;;;33.08;8.73;;;26.00;67.60;;;;;;4996438;28;20058;-79
2022/01/22 06:20:38;;;;;;;53.65;13.68;;;26.00;67.50;;;;;;5003790;28;20027;-78
2022/01/22 06:23:05;;;;;;;68.75;13.27;;;26.00;67.60;;;;;;5002712;28;20061;-75
2022/01/22 06:26:12;;;;;;;39.30;11.65;;;26.10;68.20;;;;;;4999304;28;20030;-75
2022/01/22 06:29:19;;;;;;;32.08;11.43;;;26.10;68.40;;;;;;4988231;28;20034;-78
2022/01/22 06:32:25;;;;;;;40.95;27.20;;;26.20;68.30;;;;;;4990030;28;20034;-72
2022/01/22 06:35:32;;;;;;;48.47;19.50;;;26.20;68.40;;;;;;4990833;28;20521;-80
2022/01/22 06:38:38;;;;;;;33.45;14.48;;;26.30;68.20;;;;;;4988950;28;20382;-71
2022/01/22 06:41:44;;;;;;;107.47;19.05;;;26.40;68.30;;;;;;4990392;28;20030;-74
2022/01/22 06:44:22;;;;;;;63.55;14.57;;;26.40;67.90;;;;;;4987907;28;20061;-75
2022/01/22 06:46:51;;;;;;;64.85;15.55;;;26.60;67.90;;;;;;4992113;28;20030;-75
2022/01/22 06:49:18;;;;;;;46.85;11.65;;;26.60;68.00;;;;;;4997747;28;21236;-73
2022/01/22 06:51:46;;;;;;;31.40;11.38;;;26.60;67.90;;;;;;5000876;28;20041;-77
2022/01/22 06:54:14;;;;;;;29.23;8.65;;;26.70;67.80;;;;;;5002025;28;20033;-75
2022/01/22 06:56:41;;;;;;;33.67;8.95;;;26.80;67.60;;;;;;5034012;28;20680;-72
2022/01/22 06:59:10;;;;;;;43.80;9.68;;;26.80;67.80;;;;;;4996653;28;20019;-80
2022/01/22 07:01:36;;;;;;;23.92;6.72;;;26.90;67.80;;;;;;4999812;28;20022;-77
2022/01/22 07:04:03;;;;;;;25.42;6.70;;;26.90;67.80;;;;;;5000165;28;20093;-74
2022/01/22 07:06:34;;;;;;;45.47;10.13;;;27.00;67.50;;;;;;4989704;28;20034;-75
2022/01/22 07:09:06;;;;;;;28.45;8.27;;;27.10;67.60;;;;;;4990144;28;20464;-78
2022/01/22 07:11:36;;;;;;;26.37;7.10;;;27.10;67.30;;;;;;5000878;28;20066;-73
2022/01/22 07:14:09;;;;;;;27.63;7.18;;;27.20;67.20;;;;;;4985805;28;20034;-75
2022/01/22 07:16:36;;;;;;;23.45;6.75;;;27.20;67.10;;;;;;4992005;28;20421;-75
2022/01/22 07:19:03;;;;;;;31.52;8.40;;;27.30;66.70;;;;;;4984954;28;20025;-78
2022/01/22 07:21:31;;;;;;;30.83;8.07;;;27.30;66.30;;;;;;4990256;28;20029;-75
2022/01/22 07:26:31;;;;;;;21.35;7.72;;;27.40;66.40;;;;;;4987205;28;20049;-79
2022/01/22 07:28:58;;;;;;;25.20;6.43;;;27.50;66.00;;;;;;4987360;28;20019;-74
2022/01/22 07:31:26;;;;;;;19.45;7.78;;;27.50;65.70;;;;;;4989571;28;20125;-78
2022/01/22 07:33:53;;;;;;;21.70;8.00;;;27.60;65.70;;;;;;4989421;28;20018;-72
2022/01/22 07:36:21;;;;;;;17.42;6.82;;;27.70;65.60;;;;;;5005739;28;20033;-76
2022/01/22 07:38:47;;;;;;;19.52;5.55;;;27.80;64.80;;;;;;4990189;28;20018;-75
2022/01/22 07:41:16;;;;;;;18.88;6.00;;;27.80;64.20;;;;;;5019938;28;20457;-76
2022/01/22 07:43:43;;;;;;;14.23;9.07;;;27.90;63.90;;;;;;4991489;28;20026;-77
2022/01/22 07:46:11;;;;;;;15.68;8.82;;;27.90;63.60;;;;;;4989090;28;20632;-72
2022/01/22 07:48:40;;;;;;;15.88;6.35;;;28.00;63.30;;;;;;4987858;28;20370;-77
2022/01/22 07:51:06;;;;;;;19.98;5.47;;;28.10;63.00;;;;;;4983472;28;20478;-74
2022/01/22 07:53:33;;;;;;;23.80;7.00;;;28.30;62.40;;;;;;4987604;28;20030;-77
2022/01/22 07:56:10;;;;;;;25.45;7.07;;;28.40;62.30;;;;;;4989183;28;20015;-75
2022/01/22 07:58:37;;;;;;;22.17;6.15;;;28.60;62.40;;;;;;5000898;28;20030;-77
2022/01/22 08:01:03;;;;;;;17.73;5.78;;;28.60;62.40;;;;;;4997737;28;20113;-77
2022/01/22 08:03:30;;;;;;;18.25;7.05;;;28.60;61.80;;;;;;4982448;28;20046;-73
2022/01/22 08:05:57;;;;;;;26.27;16.88;;;28.70;61.30;;;;;;4985339;28;20030;-77
2022/01/22 08:08:23;;;;;;;13.38;8.48;;;28.80;61.20;;;;;;4989648;28;20031;-78
2022/01/22 08:10:50;;;;;;;42.55;26.73;;;28.90;61.20;;;;;;4986945;28;20045;-75
2022/01/22 08:13:18;;;;;;;31.10;15.07;;;29.00;61.50;;;;;;4985919;28;20422;-84
2022/01/22 08:15:45;;;;;;;48.63;43.20;;;29.00;61.70;;;;;;4989546;28;20030;-83
2022/01/22 08:18:13;;;;;;;59.25;48.00;;;29.10;61.50;;;;;;4986265;28;20023;-79
2022/01/22 08:20:40;;;;;;;164.25;147.57;;;29.20;61.00;;;;;;4986013;28;20105;-77
2022/01/22 08:23:06;;;;;;;54.55;38.47;;;29.30;59.90;;;;;;4994822;28;20049;-76
2022/01/22 08:25:33;;;;;;;36.83;21.42;;;29.30;59.40;;;;;;4985540;28;20023;-74
2022/01/22 08:30:34;;;;;;;13.93;7.13;;;29.50;58.80;;;;;;4988858;28;20066;-79
2022/01/22 08:35:52;;;;;;;14.07;4.95;;;29.60;57.70;;;;;;4986072;28;20050;-76
2022/01/22 08:38:22;;;;;;;;;;;29.80;57.30;;;;;;4990074;28;20026;-76
2022/01/22 08:40:51;;;;;;;12.38;4.78;;;29.80;57.00;;;;;;4990617;28;19915;-79
2022/01/22 08:43:18;;;;;;;14.70;5.38;;;30.00;57.20;;;;;;4987437;28;20037;-82
2022/01/22 08:45:49;;;;;;;13.32;4.80;;;30.00;56.80;;;;;;4993181;28;20456;-70
2022/01/22 08:48:20;;;;;;;15.55;9.15;;;30.20;56.80;;;;;;4986198;28;20122;-84
2022/01/22 08:50:47;;;;;;;16.13;6.97;;;30.20;56.40;;;;;;4989602;28;20104;-72
2022/01/22 08:53:17;;;;;;;16.38;5.50;;;30.30;56.10;;;;;;4986924;28;20146;-76
2022/01/22 08:55:43;;;;;;;13.50;4.32;;;30.40;56.30;;;;;;5004401;28;20466;-75
2022/01/22 08:58:10;;;;;;;11.52;4.82;;;30.50;55.70;;;;;;4986091;28;20058;-73
2022/01/22 09:00:38;;;;;;;14.63;4.05;;;30.60;55.80;;;;;;5000436;28;20019;-80
2022/01/22 09:03:06;;;;;;;12.32;4.22;;;30.70;55.40;;;;;;4986079;28;20039;-75
2022/01/22 09:05:36;;;;;;;10.85;4.28;;;30.70;55.30;;;;;;5001074;28;20042;-77
2022/01/22 09:08:04;;;;;;;11.70;5.88;;;30.80;54.50;;;;;;4989433;28;20018;-76
2022/01/22 09:10:31;;;;;;;12.65;3.97;;;30.90;54.50;;;;;;4987565;28;20485;-73
2022/01/22 09:12:58;;;;;;;19.23;4.82;;;31.00;54.10;;;;;;4990042;28;20034;-81
2022/01/22 09:15:24;;;;;;;16.52;3.80;;;31.10;54.00;;;;;;4987229;28;20070;-75
2022/01/22 09:17:51;;;;;;;9.13;3.60;;;31.20;53.90;;;;;;4988191;28;20029;-79
2022/01/22 09:20:32;;;;;;;8.63;4.10;;;31.20;53.60;;;;;;4983932;28;20140;-76
2022/01/22 09:22:59;;;;;;;8.15;3.03;;;31.30;53.60;;;;;;5001698;28;20033;-82
2022/01/22 09:25:26;;;;;;;12.80;4.13;;;31.30;53.80;;;;;;5001842;28;20023;-79
2022/01/22 09:27:52;;;;;;;9.70;3.75;;;31.40;53.80;;;;;;4988671;28;20022;-81
2022/01/22 09:30:19;;;;;;;11.90;4.03;;;31.50;53.90;;;;;;4985889;28;20073;-75
2022/01/22 09:32:45;;;;;;;20.27;15.30;;;31.50;53.60;;;;;;4985328;28;20026;-76
2022/01/22 09:35:18;;;;;;;14.23;7.95;;;31.70;53.60;;;;;;4986660;28;20027;-76
2022/01/22 09:37:51;;;;;;;12.77;4.25;;;31.70;53.60;;;;;;4984597;28;20108;-74
2022/01/22 09:41:01;;;;;;;7.47;3.45;;;31.80;53.70;;;;;;4990334;28;20048;-78
2022/01/22 09:44:08;;;;;;;19.30;4.88;;;31.80;53.60;;;;;;4984752;28;20019;-77
2022/01/22 09:47:15;;;;;;;9.63;4.40;;;31.90;53.00;;;;;;4982963;28;20022;-75
2022/01/22 09:50:01;;;;;;;16.80;3.65;;;32.00;52.90;;;;;;4984880;28;20055;-75
2022/01/22 09:52:28;;;;;;;24.02;5.38;;;32.00;52.30;;;;;;4986930;28;20085;-74
2022/01/22 09:55:34;;;;;;;13.15;4.07;;;32.10;52.70;;;;;;4993297;28;20026;-75
2022/01/22 09:58:40;;;;;;;19.60;4.15;;;32.20;52.60;;;;;;4994583;28;20127;-74
2022/01/22 10:02:04;;;;;;;12.80;3.45;;;32.30;52.30;;;;;;4993237;28;20184;-76
2022/01/22 10:05:24;;;;;;;22.48;14.98;;;32.30;51.90;;;;;;4987537;28;20411;-77
2022/01/22 10:07:53;;;;;;;13.43;5.22;;;32.40;51.90;;;;;;4988292;28;20066;-74
2022/01/22 10:10:23;;;;;;;12.25;4.45;;;32.50;52.60;;;;;;4988202;28;20027;-77
2022/01/22 10:12:53;;;;;;;12.95;3.55;;;32.50;51.50;;;;;;5005690;28;20105;-76
2022/01/22 10:15:22;;;;;;;11.50;4.53;;;32.60;51.50;;;;;;4987988;28;20014;-80
2022/01/22 10:17:54;;;;;;;9.50;3.55;;;32.60;51.30;;;;;;4991128;28;20010;-79
2022/01/22 10:20:29;;;;;;;14.75;4.85;;;32.60;51.30;;;;;;4987199;28;20050;-80
2022/01/22 10:23:24;;;;;;;14.73;4.45;;;32.70;50.70;;;;;;4989004;28;20048;-78
2022/01/22 10:26:00;;;;;;;13.45;3.63;;;32.80;50.90;;;;;;4991277;28;20032;-78
2022/01/22 10:28:27;;;;;;;17.70;3.70;;;32.80;50.80;;;;;;5002402;28;20039;-81
2022/01/22 10:31:06;;;;;;;11.30;3.55;;;32.90;50.20;;;;;;4988435;28;20039;-75
2022/01/22 10:33:35;;;;;;;11.13;3.90;;;33.00;49.70;;;;;;4990982;28;20031;-76
2022/01/22 10:36:17;;;;;;;12.38;3.85;;;33.00;50.00;;;;;;4991730;28;20372;-75
2022/01/22 10:38:52;;;;;;;12.40;3.25;;;33.10;50.30;;;;;;4991209;28;20041;-78
2022/01/22 10:41:39;;;;;;;19.60;13.23;;;33.20;49.20;;;;;;5019364;28;20035;-79
2022/01/22 10:44:09;;;;;;;18.38;7.55;;;33.40;49.10;;;;;;4984781;28;20057;-77
2022/01/22 10:47:22;;;;;;;13.77;10.43;;;33.40;49.60;;;;;;4993830;28;20069;-73
2022/01/22 10:49:30;;;;;;;23.67;11.18;;;33.50;49.30;;;;;;4990597;28;20043;-78
2022/01/22 10:52:14;;;;;;;15.38;7.30;;;33.50;49.60;;;;;;4986470;28;20044;-74
2022/01/22 10:54:40;;;;;;;19.05;8.27;;;33.60;49.70;;;;;;4991972;28;20018;-81
2022/01/22 10:57:26;;;;;;;11.50;4.90;;;33.60;50.30;;;;;;5006084;28;20034;-73
2022/01/22 10:59:56;;;;;;;38.85;4.90;;;33.70;50.30;;;;;;4981332;28;20029;-73
2022/01/22 11:02:37;;;;;;;25.10;4.82;;;33.80;50.70;;;;;;4986949;28;20042;-77
2022/01/22 11:05:04;;;;;;;17.08;4.32;;;33.80;51.10;;;;;;4987782;28;20113;-76
2022/01/22 11:07:31;;;;;;;11.52;3.25;;;33.90;50.80;;;;;;4990660;28;20557;-75
2022/01/22 11:10:00;;;;;;;10.45;4.72;;;33.90;50.30;;;;;;4987887;28;20026;-76
2022/01/22 11:12:26;;;;;;;8.63;3.33;;;33.90;50.50;;;;;;4986091;28;20109;-73
2022/01/22 11:14:56;;;;;;;9.48;3.33;;;34.00;50.40;;;;;;4987479;28;20038;-75
2022/01/22 11:17:24;;;;;;;21.13;17.27;;;34.00;49.40;;;;;;4989532;28;20038;-74
2022/01/22 11:19:53;;;;;;;14.48;10.13;;;34.00;49.50;;;;;;4991462;28;20034;-76
2022/01/22 11:22:22;;;;;;;12.35;4.75;;;34.00;49.40;;;;;;4987511;28;20034;-77
2022/01/22 11:24:51;;;;;;;10.65;4.53;;;34.00;49.00;;;;;;4988446;28;20515;-73
2022/01/22 11:27:22;;;;;;;8.18;3.40;;;34.10;49.00;;;;;;4988782;28;20026;-75
2022/01/22 11:30:01;;;;;;;12.00;3.97;;;34.10;48.80;;;;;;4988223;28;20526;-74
2022/01/22 11:32:52;;;;;;;12.05;8.77;;;34.10;48.20;;;;;;4987077;28;20386;-75
2022/01/22 11:35:54;;;;;;;12.90;5.05;;;34.10;48.00;;;;;;4990421;28;20030;-77
2022/01/22 11:38:36;;;;;;;17.70;4.80;;;34.20;47.50;;;;;;4967160;28;20045;-72
2022/01/22 11:41:15;;;;;;;25.60;18.88;;;34.20;47.80;;;;;;4991890;28;20026;-73
2022/01/22 11:44:09;;;;;;;17.35;9.65;;;34.30;47.40;;;;;;4990143;28;20425;-74
2022/01/22 11:46:42;;;;;;;20.20;6.07;;;34.40;47.40;;;;;;4995280;28;20551;-74
2022/01/22 11:49:21;;;;;;;11.32;3.97;;;34.40;47.50;;;;;;4995703;28;20025;-75
2022/01/22 11:51:53;;;;;;;10.60;3.83;;;34.50;47.70;;;;;;4999905;28;20080;-75
2022/01/22 11:54:23;;;;;;;10.02;4.05;;;34.60;46.70;;;;;;4992074;28;20030;-76
2022/01/22 11:56:55;;;;;;;10.52;7.07;;;34.70;46.80;;;;;;4990299;28;20026;-75
2022/01/22 11:59:26;;;;;;;12.77;4.78;;;34.80;47.10;;;;;;4993912;28;20390;-78
2022/01/22 12:02:19;;;;;;;7.10;3.60;;;34.80;47.00;;;;;;4994181;28;20030;-76
2022/01/22 12:05:26;;;;;;;6.75;3.05;;;34.80;46.90;;;;;;4988446;28;20042;-75
2022/01/22 12:08:44;;;;;;;6.43;3.40;;;34.80;47.10;;;;;;4992957;28;20027;-74
2022/01/22 12:15:11;;;;;;;10.57;2.58;;;34.80;46.60;;;;;;4956726;28;20557;-71
2022/01/22 12:17:51;;;;;;;8.05;2.08;;;34.80;46.60;;;;;;4991603;28;20021;-75
2022/01/22 12:23:41;;;;;;;21.75;11.45;;;34.90;46.20;;;;;;4987977;28;20041;-72
2022/01/22 12:27:01;;;;;;;14.60;5.85;;;34.90;45.90;;;;;;4991307;28;20030;-74
2022/01/22 12:29:50;;;;;;;11.73;3.50;;;35.00;45.20;;;;;;4984006;28;20117;-72
2022/01/22 12:33:11;;;;;;;8.68;2.95;;;35.00;45.60;;;;;;5018781;28;20428;-80
2022/01/22 12:36:28;;;;;;;12.40;4.63;;;35.10;44.80;;;;;;5006146;28;20061;-77
2022/01/22 12:39:39;;;;;;;5.47;2.38;;;35.20;45.00;;;;;;4990847;28;20033;-77
2022/01/22 12:42:54;;;;;;;8.02;2.95;;;35.20;44.50;;;;;;4994828;28;20073;-78
2022/01/22 12:46:00;;;;;;;7.33;2.93;;;35.30;44.60;;;;;;4989381;28;20125;-77
2022/01/22 12:49:12;;;;;;;12.98;2.90;;;35.30;44.70;;;;;;4985946;28;20284;-78
2022/01/22 12:52:18;;;;;;;12.07;2.90;;;35.40;44.70;;;;;;4998149;28;20069;-73
2022/01/22 12:56:02;;;;;;;9.57;3.47;;;35.40;44.60;;;;;;5000514;28;20027;-72
2022/01/22 12:59:09;;;;;;;5.70;2.40;;;35.40;45.10;;;;;;4996605;28;20389;-76
2022/01/22 13:01:42;;;;;;;14.93;3.35;;;35.50;44.90;;;;;;4999607;28;20037;-76
2022/01/22 13:04:09;;;;;;;9.20;2.40;;;35.50;44.80;;;;;;4999123;28;20045;-77
2022/01/22 13:06:44;;;;;;;7.47;2.90;;;35.50;45.10;;;;;;4997193;28;20023;-77
2022/01/22 13:09:11;;;;;;;7.10;2.25;;;35.60;45.00;;;;;;4997171;28;20378;-76
2022/01/22 13:11:48;;;;;;;12.80;4.72;;;35.50;44.60;;;;;;5003927;28;20061;-76
2022/01/22 13:14:30;;;;;;;9.32;3.95;;;35.60;44.90;;;;;;4998202;28;20031;-75
2022/01/22 13:16:57;;;;;;;11.05;3.63;;;35.60;45.00;;;;;;5001316;28;20022;-78
2022/01/22 13:19:30;;;;;;;5.35;2.50;;;35.60;44.90;;;;;;4994678;28;20018;-77
2022/01/22 13:22:54;;;;;;;3.70;2.63;;;35.60;45.00;;;;;;4995293;28;20045;-77
2022/01/22 13:26:00;;;;;;;35.42;31.92;;;35.70;45.00;;;;;;4997428;28;20116;-78
2022/01/22 13:29:12;;;;;;;13.80;9.23;;;35.70;44.90;;;;;;4989973;28;20021;-76
2022/01/22 13:31:38;;;;;;;6.57;5.22;;;35.70;45.10;;;;;;4986446;28;20579;-76
2022/01/22 13:34:24;;;;;;;25.05;6.80;;;35.70;45.00;;;;;;4990987;28;20030;-77
2022/01/22 13:37:25;;;;;;;12.40;4.40;;;35.80;45.40;;;;;;4986391;28;20018;-76
2022/01/22 13:40:05;;;;;;;7.68;3.83;;;35.80;45.50;;;;;;4995771;28;20088;-75
2022/01/22 13:45:26;;;;;;;8.02;3.60;;;35.80;45.50;;;;;;4994196;28;20067;-76
2022/01/22 13:47:59;;;;;;;9.57;4.13;;;35.80;45.20;;;;;;4993600;28;20061;-77
2022/01/22 13:50:41;;;;;;;8.27;4.32;;;35.80;45.00;;;;;;4991895;28;20096;-75
2022/01/22 13:53:29;;;;;;;7.40;3.47;;;35.80;44.80;;;;;;5006028;28;20124;-76
2022/01/22 13:56:49;;;;;;;6.65;4.10;;;35.80;44.70;;;;;;4992266;28;20453;-76
2022/01/22 14:00:07;;;;;;;9.32;3.95;;;35.80;44.80;;;;;;4991736;28;20034;-76
2022/01/22 14:03:28;;;;;;;8.68;3.47;;;35.80;44.90;;;;;;4990022;28;20054;-75
2022/01/22 14:05:54;;;;;;;6.43;2.88;;;35.90;45.00;;;;;;4984187;28;20027;-77
2022/01/22 14:08:33;;;;;;;5.18;3.42;;;36.00;44.70;;;;;;4994038;28;20414;-73
2022/01/22 14:11:17;;;;;;;6.80;2.83;;;36.00;44.50;;;;;;4992773;28;20038;-76
2022/01/22 14:14:02;;;;;;;;;;;36.00;44.30;;;;;;4993278;28;20026;-75
2022/01/22 14:17:09;;;;;;;10.93;3.65;;;36.00;44.30;;;;;;4995457;28;19940;-80
2022/01/22 14:19:36;;;;;;;8.40;3.30;;;36.00;44.90;;;;;;4996026;28;20779;-76
2022/01/22 14:22:42;;;;;;;8.82;3.78;;;35.90;44.90;;;;;;4998543;28;20026;-77
2022/01/22 14:25:57;;;;;;;9.23;4.53;;;36.00;44.80;;;;;;4997117;28;20030;-74
2022/01/22 14:29:08;;;;;;;6.18;3.35;;;36.00;44.20;;;;;;4994165;28;20109;-76
2022/01/22 14:32:14;;;;;;;10.70;4.13;;;36.00;44.00;;;;;;4990993;28;20031;-78
2022/01/22 14:35:20;;;;;;;9.10;3.08;;;36.00;43.70;;;;;;4993285;28;20053;-76
2022/01/22 14:38:53;;;;;;;8.13;3.40;;;36.00;43.70;;;;;;4991482;28;20389;-75
2022/01/22 14:45:19;;;;;;;6.47;2.88;;;35.80;43.40;;;;;;4998699;28;20042;-74
2022/01/22 14:47:53;;;;;;;6.47;3.13;;;35.80;43.70;;;;;;4995038;28;20168;-78
2022/01/22 14:50:59;;;;;;;17.05;4.60;;;35.80;44.00;;;;;;4991107;28;20038;-73
2022/01/22 14:54:05;;;;;;;24.38;12.68;;;35.80;44.70;;;;;;4992754;28;20088;-74
2022/01/22 14:57:08;;;;;;;14.75;6.07;;;35.80;45.30;;;;;;4991690;28;20027;-72
2022/01/22 15:00:16;;;;;;;10.13;4.38;;;35.70;45.60;;;;;;5023785;28;20022;-71
2022/01/22 15:03:22;;;;;;;10.00;3.92;;;35.70;46.10;;;;;;4984188;28;20066;-76
2022/01/22 15:06:29;;;;;;;20.38;4.20;;;35.70;46.30;;;;;;4993163;28;20490;-75
2022/01/22 15:09:35;;;;;;;13.93;3.70;;;35.70;46.80;;;;;;4995987;28;20614;-72
2022/01/22 15:12:41;;;;;;;8.25;3.90;;;35.60;47.10;;;;;;4993830;28;20037;-75